createdAt,value
2019-06-27T00:01:12.367Z,16.82
2019-06-27T00:04:06.071Z,16.80
2019-06-27T00:07:00.042Z,16.83
2019-06-27T00:10:03.949Z,16.93
2019-06-27T00:13:05.335Z,16.91
2019-06-27T00:16:06.291Z,16.86
2019-06-27T00:19:04.358Z,16.81
2019-06-27T00:22:01.503Z,16.80
2019-06-27T00:25:14.191Z,16.77
2019-06-27T00:28:16.367Z,16.72
2019-06-27T00:31:22.239Z,16.72
2019-06-27T00:34:14.256Z,16.68
2019-06-27T00:37:18.365Z,16.66
2019-06-27T00:40:17.889Z,16.61
2019-06-27T00:43:10.695Z,16.62
2019-06-27T00:46:09.075Z,16.58
2019-06-27T00:49:04.646Z,16.49
2019-06-27T00:52:05.077Z,16.38
2019-06-27T00:55:04.295Z,16.22
2019-06-27T00:58:04.691Z,16.22
2019-06-27T01:01:05.142Z,16.23
2019-06-27T01:04:05.574Z,16.27
2019-06-27T01:06:58.027Z,16.18
2019-06-27T01:09:52.109Z,15.98
2019-06-27T01:12:46.677Z,15.95
2019-06-27T01:15:46.149Z,16.01
2019-06-27T01:18:52.479Z,16.01
2019-06-27T01:21:52.169Z,16.13
2019-06-27T01:24:41.108Z,16.09
2019-06-27T01:27:37.600Z,16.16
2019-06-27T01:30:31.856Z,16.16
2019-06-27T01:33:28.770Z,16.07
2019-06-27T01:36:34.123Z,16.19
2019-06-27T01:39:33.728Z,16.16
2019-06-27T01:42:41.085Z,16.09
2019-06-27T01:45:47.032Z,16.09
2019-06-27T01:48:52.452Z,15.94
2019-06-27T01:51:59.037Z,15.84
2019-06-27T01:55:00.169Z,15.84
2019-06-27T01:58:02.217Z,15.83
2019-06-27T02:00:57.757Z,15.81
2019-06-27T02:04:11.683Z,15.81
2019-06-27T02:07:05.346Z,15.77
2019-06-27T02:10:12.124Z,15.73
2019-06-27T02:13:14.185Z,15.72
2019-06-27T02:16:07.556Z,15.65
2019-06-27T02:19:10.483Z,15.63
2019-06-27T02:22:04.935Z,15.57
2019-06-27T02:24:53.400Z,15.55
2019-06-27T02:28:03.061Z,15.45
2019-06-27T02:34:13.818Z,15.28
2019-06-27T02:37:15.368Z,15.15
2019-06-27T02:40:15.992Z,15.02
2019-06-27T02:43:13.293Z,15.05
2019-06-27T02:46:10.468Z,15.02
2019-06-27T02:49:07.780Z,14.98
2019-06-27T02:52:03.086Z,14.96
2019-06-27T02:55:01.279Z,14.98
2019-06-27T02:58:28.004Z,14.93
2019-06-27T03:01:03.724Z,14.89
2019-06-27T03:03:54.629Z,14.78
2019-06-27T03:09:51.582Z,14.70
2019-06-27T03:12:41.410Z,14.67
2019-06-27T03:15:29.801Z,14.66
2019-06-27T03:18:17.766Z,14.65
2019-06-27T03:21:06.849Z,14.66
2019-06-27T03:24:04.353Z,14.65
2019-06-27T03:26:59.497Z,14.69
2019-06-27T03:29:59.193Z,14.69
2019-06-27T03:32:57.526Z,14.67
2019-06-27T03:36:02.939Z,14.71
2019-06-27T03:39:09.453Z,14.79
2019-06-27T03:42:07.834Z,14.67
2019-06-27T03:45:04.116Z,14.55
2019-06-27T03:48:02.283Z,14.45
2019-06-27T03:51:11.991Z,14.43
2019-06-27T03:54:16.272Z,14.36
2019-06-27T03:57:11.100Z,14.20
2019-06-27T04:00:12.057Z,14.06
2019-06-27T04:03:03.564Z,14.13
2019-06-27T04:05:54.883Z,14.09
2019-06-27T04:09:01.776Z,14.10
2019-06-27T04:12:10.572Z,14.12
2019-06-27T04:15:08.521Z,14.20
2019-06-27T04:18:03.507Z,14.11
2019-06-27T04:21:00.966Z,14.02
2019-06-27T04:24:17.969Z,14.04
2019-06-27T04:27:21.699Z,14.10
2019-06-27T04:30:31.245Z,14.10
2019-06-27T04:33:31.934Z,14.18
2019-06-27T04:36:32.602Z,14.12
2019-06-27T04:39:24.871Z,14.17
2019-06-27T04:42:21.211Z,14.13
2019-06-27T04:45:13.908Z,14.14
2019-06-27T04:48:24.114Z,14.21
2019-06-27T04:51:09.345Z,14.33
2019-06-27T04:54:05.125Z,14.46
2019-06-27T04:57:20.270Z,14.23
2019-06-27T05:00:16.210Z,14.16
2019-06-27T05:03:39.637Z,14.18
2019-06-27T05:06:57.502Z,14.18
2019-06-27T05:09:53.670Z,14.05
2019-06-27T05:12:45.146Z,14.25
2019-06-27T05:15:37.399Z,14.16
2019-06-27T05:18:32.477Z,14.22
2019-06-27T05:21:38.324Z,14.36
2019-06-27T05:24:53.736Z,14.32
2019-06-27T05:27:55.905Z,14.12
2019-06-27T05:31:01.422Z,13.97
2019-06-27T05:34:02.094Z,13.90
2019-06-27T05:37:03.700Z,13.85
2019-06-27T05:39:50.282Z,13.73
2019-06-27T05:42:43.344Z,13.92
2019-06-27T05:45:48.969Z,13.98
2019-06-27T05:48:39.771Z,14.13
2019-06-27T05:51:35.401Z,14.29
2019-06-27T05:54:43.495Z,14.51
2019-06-27T05:57:37.511Z,14.82
2019-06-27T06:00:30.941Z,15.01
2019-06-27T06:03:28.838Z,15.22
2019-06-27T06:06:31.653Z,15.25
2019-06-27T06:09:32.867Z,15.38
2019-06-27T06:12:34.263Z,15.43
2019-06-27T06:15:41.472Z,15.40
2019-06-27T06:18:52.367Z,15.36
2019-06-27T06:21:52.413Z,15.66
2019-06-27T06:25:21.457Z,15.65
2019-06-27T06:28:20.331Z,15.79
2019-06-27T06:31:30.425Z,15.81
2019-06-27T06:34:26.588Z,15.66
2019-06-27T06:37:47.979Z,15.77
2019-06-27T06:40:47.503Z,15.79
2019-06-27T06:43:57.626Z,16.08
2019-06-27T06:46:48.274Z,16.06
2019-06-27T06:49:53.721Z,15.88
2019-06-27T06:52:52.586Z,15.76
2019-06-27T06:55:57.482Z,15.83
2019-06-27T06:58:52.460Z,16.30
2019-06-27T07:01:45.921Z,16.47
2019-06-27T07:04:45.949Z,16.53
2019-06-27T07:07:52.273Z,16.14
2019-06-27T07:10:52.158Z,16.27
2019-06-27T07:13:48.267Z,15.96
2019-06-27T07:16:56.736Z,16.18
2019-06-27T07:19:47.776Z,16.15
2019-06-27T07:22:51.561Z,16.23
2019-06-27T07:25:43.807Z,16.33
2019-06-27T07:28:44.354Z,16.55
2019-06-27T07:31:37.617Z,16.74
2019-06-27T07:34:29.976Z,16.73
2019-06-27T07:37:46.332Z,16.94
2019-06-27T07:40:33.288Z,16.96
2019-06-27T07:43:33.265Z,16.97
2019-06-27T07:46:25.608Z,16.96
2019-06-27T07:49:26.600Z,17.01
2019-06-27T07:52:23.547Z,16.72
2019-06-27T07:55:34.116Z,16.56
2019-06-27T07:58:28.713Z,16.60
2019-06-27T08:01:35.573Z,16.70
2019-06-27T08:04:30.909Z,16.83
2019-06-27T08:07:24.598Z,17.03
2019-06-27T08:10:19.791Z,17.08
2019-06-27T08:13:13.433Z,17.13
2019-06-27T08:16:12.779Z,17.27
2019-06-27T08:19:04.554Z,17.35
2019-06-27T08:22:22.097Z,17.68
2019-06-27T08:25:17.292Z,17.64
2019-06-27T08:28:07.762Z,17.59
2019-06-27T08:31:01.301Z,17.74
2019-06-27T08:33:57.669Z,17.86
2019-06-27T08:36:57.653Z,18.15
2019-06-27T08:40:00.108Z,18.08
2019-06-27T08:43:06.494Z,18.56
2019-06-27T08:46:08.670Z,18.85
2019-06-27T08:49:12.971Z,19.20
2019-06-27T08:52:00.565Z,19.42
2019-06-27T08:55:03.343Z,18.97
2019-06-27T08:58:34.591Z,19.52
2019-06-27T09:01:31.616Z,19.64
2019-06-27T09:04:33.883Z,19.33
2019-06-27T09:07:38.223Z,19.27
2019-06-27T09:10:32.270Z,19.32
2019-06-27T09:13:24.803Z,19.49
2019-06-27T09:16:34.262Z,19.93
2019-06-27T09:19:25.355Z,20.18
2019-06-27T09:22:26.123Z,19.78
2019-06-27T09:25:45.407Z,19.61
2019-06-27T09:28:49.206Z,20.00
2019-06-27T09:31:46.117Z,20.19
2019-06-27T09:34:34.224Z,20.34
2019-06-27T09:37:39.435Z,20.87
2019-06-27T09:40:37.428Z,21.39
2019-06-27T09:43:29.086Z,21.55
2019-06-27T09:46:23.958Z,20.75
2019-06-27T09:49:15.750Z,20.51
2019-06-27T09:52:30.953Z,21.12
2019-06-27T09:55:47.743Z,21.19
2019-06-27T09:58:53.846Z,21.09
2019-06-27T10:01:47.760Z,21.73
2019-06-27T10:04:39.401Z,21.47
2019-06-27T10:07:39.586Z,21.86
2019-06-27T10:10:36.311Z,21.79
2019-06-27T10:13:26.767Z,21.76
2019-06-27T10:16:35.838Z,22.07
2019-06-27T10:19:27.097Z,22.59
2019-06-27T10:22:21.009Z,22.54
2019-06-27T10:25:26.005Z,22.54
2019-06-27T10:28:26.655Z,22.21
2019-06-27T10:31:23.886Z,22.23
2019-06-27T10:34:18.282Z,21.95
2019-06-27T10:37:16.921Z,22.05
2019-06-27T10:40:19.082Z,22.46
2019-06-27T10:43:13.901Z,22.88
2019-06-27T10:46:16.898Z,23.14
2019-06-27T10:49:22.104Z,23.10
2019-06-27T10:52:32.219Z,23.40
2019-06-27T10:55:28.745Z,23.29
2019-06-27T10:58:25.675Z,23.18
2019-06-27T11:01:17.035Z,23.27
2019-06-27T11:04:18.424Z,23.56
2019-06-27T11:07:17.122Z,23.79
2019-06-27T11:10:11.683Z,23.82
2019-06-27T11:13:27.238Z,23.56
2019-06-27T11:16:28.655Z,23.14
2019-06-27T11:19:15.487Z,23.25
2019-06-27T11:22:14.652Z,23.76
2019-06-27T11:25:05.062Z,23.46
2019-06-27T11:28:13.126Z,23.17
2019-06-27T11:31:12.473Z,23.81
2019-06-27T11:34:29.550Z,23.67
2019-06-27T11:37:25.968Z,23.58
2019-06-27T11:40:34.156Z,23.61
2019-06-27T11:43:26.822Z,24.60
2019-06-27T11:46:26.034Z,24.65
2019-06-27T11:49:26.363Z,24.38
2019-06-27T11:52:30.188Z,24.06
2019-06-27T11:55:26.935Z,24.41
2019-06-27T11:58:36.260Z,25.00
2019-06-27T12:01:32.137Z,25.55
2019-06-27T12:04:26.804Z,25.73
2019-06-27T12:07:32.875Z,26.19
2019-06-27T12:10:42.807Z,25.75
2019-06-27T12:13:34.961Z,25.43
2019-06-27T12:16:31.945Z,26.06
2019-06-27T12:19:29.894Z,25.15
2019-06-27T12:22:27.467Z,24.80
2019-06-27T12:25:18.173Z,24.74
2019-06-27T12:28:24.018Z,23.58
2019-06-27T12:31:31.135Z,24.54
2019-06-27T12:34:32.730Z,25.59
2019-06-27T12:37:29.472Z,25.79
2019-06-27T12:40:46.956Z,25.72
2019-06-27T12:43:44.435Z,26.20
2019-06-27T12:46:58.922Z,26.27
2019-06-27T12:50:02.205Z,25.77
2019-06-27T12:53:01.658Z,25.83
2019-06-27T12:56:25.293Z,26.47
2019-06-27T12:59:17.644Z,26.50
2019-06-27T13:02:13.222Z,26.35
2019-06-27T13:05:20.442Z,24.97
2019-06-27T13:08:23.452Z,25.09
2019-06-27T13:11:26.606Z,24.48
2019-06-27T13:14:25.639Z,25.10
2019-06-27T13:17:23.920Z,25.58
2019-06-27T13:20:22.368Z,25.37
2019-06-27T13:23:24.716Z,24.85
2019-06-27T13:26:27.138Z,24.64
2019-06-27T13:29:27.195Z,24.81
2019-06-27T13:32:21.117Z,25.15
2019-06-27T13:35:31.316Z,25.67
2019-06-27T13:38:37.418Z,25.51
2019-06-27T13:41:33.832Z,25.75
2019-06-27T13:44:35.446Z,25.87
2019-06-27T13:47:58.610Z,25.31
2019-06-27T13:50:46.416Z,26.00
2019-06-27T13:53:49.662Z,26.44
2019-06-27T13:56:46.846Z,25.94
2019-06-27T13:59:44.480Z,25.77
2019-06-27T14:02:38.277Z,25.75
2019-06-27T14:05:40.165Z,25.22
2019-06-27T14:09:04.524Z,26.00
2019-06-27T14:12:06.920Z,26.23
2019-06-27T14:15:07.449Z,26.46
2019-06-27T14:18:05.288Z,25.66
2019-06-27T14:20:52.714Z,25.84
2019-06-27T14:24:10.402Z,26.18
2019-06-27T14:27:04.742Z,25.88
2019-06-27T14:30:10.076Z,26.40
2019-06-27T14:33:09.848Z,26.02
2019-06-27T14:36:18.593Z,26.40
2019-06-27T14:39:16.621Z,26.51
2019-06-27T14:42:15.568Z,26.52
2019-06-27T14:45:09.263Z,26.40
2019-06-27T14:48:07.911Z,26.89
2019-06-27T14:50:56.799Z,26.40
2019-06-27T14:54:17.492Z,25.23
2019-06-27T14:57:30.531Z,25.61
2019-06-27T15:00:24.911Z,25.94
2019-06-27T15:03:17.933Z,25.94
2019-06-27T15:06:13.006Z,25.53
2019-06-27T15:09:05.925Z,25.72
2019-06-27T15:12:02.516Z,25.68
2019-06-27T15:15:01.938Z,25.26
2019-06-27T15:18:04.892Z,25.74
2019-06-27T15:20:57.547Z,25.81
2019-06-27T15:24:02.673Z,25.91
2019-06-27T15:26:55.765Z,26.48
2019-06-27T15:29:52.737Z,26.01
2019-06-27T15:32:49.057Z,25.54
2019-06-27T15:35:52.834Z,25.77
2019-06-27T15:38:36.568Z,26.50
2019-06-27T15:41:48.755Z,26.16
2019-06-27T15:44:47.894Z,26.73
2019-06-27T15:47:40.130Z,27.86
2019-06-27T15:50:31.476Z,28.35
2019-06-27T15:53:25.915Z,27.84
2019-06-27T15:56:13.735Z,28.22
2019-06-27T15:59:13.395Z,28.36
2019-06-27T16:02:12.359Z,28.60
2019-06-27T16:05:09.257Z,29.37
2019-06-27T16:08:03.584Z,29.35
2019-06-27T16:10:51.826Z,29.60
2019-06-27T16:13:50.067Z,29.77
2019-06-27T16:16:44.889Z,28.94
2019-06-27T16:19:39.041Z,28.77
2019-06-27T16:22:47.891Z,28.86
2019-06-27T16:25:39.880Z,28.64
2019-06-27T16:28:41.875Z,29.08
2019-06-27T16:31:34.054Z,28.65
2019-06-27T16:34:29.798Z,28.59
2019-06-27T16:37:37.805Z,27.50
2019-06-27T16:40:37.374Z,28.85
2019-06-27T16:43:34.195Z,28.80
2019-06-27T16:46:35.363Z,30.20
2019-06-27T16:49:34.126Z,30.73
2019-06-27T16:52:37.666Z,30.80
2019-06-27T16:55:27.654Z,31.19
2019-06-27T16:58:21.517Z,31.01
2019-06-27T17:01:14.254Z,30.83
2019-06-27T17:04:08.174Z,31.37
2019-06-27T17:06:59.761Z,31.37
2019-06-27T17:09:47.789Z,31.18
2019-06-27T17:12:40.246Z,30.99
2019-06-27T17:15:32.337Z,30.22
2019-06-27T17:18:24.951Z,30.54
2019-06-27T17:21:20.085Z,29.20
2019-06-27T17:24:21.604Z,30.40
2019-06-27T17:27:11.745Z,29.86
2019-06-27T17:30:00.622Z,29.08
2019-06-27T17:32:55.491Z,29.60
2019-06-27T17:35:52.424Z,28.87
2019-06-27T17:38:39.906Z,28.34
2019-06-27T17:41:37.939Z,26.34
2019-06-27T17:44:34.894Z,26.48
2019-06-27T17:47:27.286Z,26.84
2019-06-27T17:50:27.099Z,26.18
2019-06-27T17:53:31.334Z,26.48
2019-06-27T17:56:45.640Z,25.88
2019-06-27T18:00:07.297Z,25.90
2019-06-27T18:03:01.630Z,26.74
2019-06-27T18:06:04.211Z,27.65
2019-06-27T18:09:04.783Z,28.25
2019-06-27T18:11:55.900Z,28.53
2019-06-27T18:14:52.148Z,28.51
2019-06-27T18:17:53.079Z,28.65
2019-06-27T18:20:44.409Z,28.77
2019-06-27T18:23:36.749Z,28.64
2019-06-27T18:26:41.382Z,28.03
2019-06-27T18:29:30.629Z,27.73
2019-06-27T18:32:22.820Z,28.03
2019-06-27T18:35:16.905Z,27.70
2019-06-27T18:38:13.808Z,27.67
2019-06-27T18:41:03.764Z,27.07
2019-06-27T18:44:04.859Z,26.70
2019-06-27T18:46:59.653Z,26.07
2019-06-27T18:49:58.004Z,26.08
2019-06-27T18:52:47.831Z,26.11
2019-06-27T18:55:56.516Z,25.38
2019-06-27T18:59:13.241Z,25.57
2019-06-27T19:02:08.076Z,24.64
2019-06-27T19:05:00.796Z,23.76
2019-06-27T19:08:04.624Z,23.22
2019-06-27T19:11:14.563Z,22.00
2019-06-27T19:14:10.035Z,21.02
2019-06-27T19:17:26.738Z,19.93
2019-06-27T19:20:32.459Z,19.44
2019-06-27T19:23:43.227Z,18.89
2019-06-27T19:26:57.249Z,18.51
2019-06-27T19:29:51.289Z,18.27
2019-06-27T19:33:08.697Z,18.06
2019-06-27T19:36:04.389Z,17.86
2019-06-27T19:39:26.121Z,17.71
2019-06-27T19:42:29.930Z,17.48
2019-06-27T19:45:43.101Z,17.26
2019-06-27T19:48:31.415Z,16.96
2019-06-27T19:51:18.801Z,16.88
2019-06-27T19:54:06.639Z,16.71
2019-06-27T19:57:05.887Z,16.67
2019-06-27T20:00:00.915Z,16.66
2019-06-27T20:02:56.219Z,16.63
2019-06-27T20:05:46.909Z,16.57
2019-06-27T20:08:41.613Z,16.51
2019-06-27T20:11:30.168Z,16.40
2019-06-27T20:14:25.010Z,16.35
2019-06-27T20:17:20.119Z,16.31
2019-06-27T20:20:10.611Z,16.09
2019-06-27T20:23:06.461Z,15.89
2019-06-27T20:26:09.883Z,15.86
2019-06-27T20:29:09.534Z,15.83
2019-06-27T20:32:03.587Z,15.75
2019-06-27T20:35:09.874Z,15.71
2019-06-27T20:38:12.439Z,15.64
2019-06-27T20:41:09.563Z,15.63
2019-06-27T20:43:58.684Z,15.62
2019-06-27T20:47:15.498Z,15.51
2019-06-27T20:50:09.489Z,15.47
2019-06-27T20:53:13.986Z,15.47
2019-06-27T20:56:25.078Z,15.42
2019-06-27T20:59:38.432Z,15.49
2019-06-27T21:02:31.622Z,15.53
2019-06-27T21:05:23.509Z,15.54
2019-06-27T21:08:30.297Z,15.59
2019-06-27T21:11:33.443Z,15.68
2019-06-27T21:14:50.800Z,15.74
2019-06-27T21:18:05.626Z,15.74
2019-06-27T21:21:01.196Z,15.79
2019-06-27T21:24:09.568Z,15.82
2019-06-27T21:27:08.541Z,15.87
2019-06-27T21:30:04.851Z,15.76
2019-06-27T21:33:00.125Z,15.77
2019-06-27T21:36:01.466Z,15.69
2019-06-27T21:39:08.096Z,15.67
2019-06-27T21:42:03.935Z,15.58
2019-06-27T21:45:00.860Z,15.55
2019-06-27T21:48:09.895Z,15.57
2019-06-27T21:51:26.071Z,15.51
2019-06-27T21:54:13.028Z,13.92
2019-06-27T21:57:27.997Z,15.54
2019-06-27T22:00:20.740Z,15.48
2019-06-27T22:03:26.150Z,15.55
2019-06-27T22:06:27.372Z,15.58
2019-06-27T22:09:25.717Z,15.44
2019-06-27T22:12:35.931Z,15.44
2019-06-27T22:15:40.982Z,15.44
2019-06-27T22:18:42.446Z,15.44
2019-06-27T22:22:01.376Z,15.40
2019-06-27T22:24:57.451Z,15.34
2019-06-27T22:28:00.240Z,15.40
2019-06-27T22:31:10.025Z,15.42
2019-06-27T22:34:09.920Z,15.48
2019-06-27T22:37:40.499Z,15.47
2019-06-27T22:41:03.064Z,15.45
2019-06-27T22:44:14.940Z,15.49
2019-06-27T22:50:56.170Z,15.51
2019-06-27T22:54:07.906Z,15.44
2019-06-27T22:57:04.282Z,15.45
2019-06-27T23:00:07.012Z,15.42
2019-06-27T23:03:12.026Z,15.39
2019-06-27T23:06:24.323Z,15.42
2019-06-27T23:09:56.451Z,15.44
2019-06-27T23:12:47.717Z,15.45
2019-06-27T23:15:42.954Z,15.44
2019-06-27T23:18:40.671Z,15.32
2019-06-27T23:21:47.833Z,15.38
2019-06-27T23:24:48.110Z,15.39
2019-06-27T23:27:42.429Z,15.35
2019-06-27T23:30:41.239Z,15.32
2019-06-27T23:33:45.926Z,15.34
2019-06-27T23:36:37.340Z,15.31
2019-06-27T23:39:41.864Z,15.27
2019-06-27T23:42:27.660Z,15.24
2019-06-27T23:45:30.206Z,15.14
2019-06-27T23:48:20.990Z,15.10
2019-06-27T23:51:15.465Z,15.01
2019-06-27T23:54:13.154Z,14.98
2019-06-27T23:57:23.799Z,14.87
